createdAt,value
2018-10-09T00:01:40.017Z,8.73
2018-10-09T00:04:08.068Z,13.25
2018-10-09T00:06:36.159Z,9.20
2018-10-09T00:09:05.916Z,9.68
2018-10-09T00:11:33.985Z,11.95
2018-10-09T00:14:02.103Z,8.13
2018-10-09T00:16:30.160Z,8.50
2018-10-09T00:18:58.220Z,8.80
2018-10-09T00:21:26.277Z,9.88
2018-10-09T00:23:54.319Z,7.17
2018-10-09T00:26:22.395Z,6.40
2018-10-09T00:28:50.439Z,8.23
2018-10-09T00:31:18.480Z,7.45
2018-10-09T00:33:46.541Z,8.18
2018-10-09T00:36:14.587Z,9.98
2018-10-09T00:38:42.641Z,7.35
2018-10-09T00:41:10.724Z,11.33
2018-10-09T00:43:38.780Z,13.90
2018-10-09T00:46:07.045Z,7.20
2018-10-09T00:48:35.096Z,8.60
2018-10-09T00:51:03.153Z,6.78
2018-10-09T00:53:31.204Z,8.83
2018-10-09T00:55:59.251Z,10.38
2018-10-09T00:58:27.311Z,6.35
2018-10-09T01:00:55.368Z,11.48
2018-10-09T01:03:23.416Z,9.95
2018-10-09T01:05:51.475Z,12.23
2018-10-09T01:08:19.525Z,12.43
2018-10-09T01:10:47.579Z,8.58
2018-10-09T01:13:15.648Z,6.90
2018-10-09T01:15:43.696Z,10.48
2018-10-09T01:18:11.748Z,10.55
2018-10-09T01:20:39.797Z,10.05
2018-10-09T01:23:07.854Z,6.55
2018-10-09T01:25:36.408Z,10.32
2018-10-09T01:28:04.466Z,10.43
2018-10-09T01:30:33.389Z,8.60
2018-10-09T01:33:01.916Z,8.38
2018-10-09T01:35:29.962Z,6.12
2018-10-09T01:37:58.020Z,7.87
2018-10-09T01:40:26.112Z,13.43
2018-10-09T01:42:54.200Z,9.13
2018-10-09T01:45:22.248Z,10.50
2018-10-09T01:47:50.304Z,9.10
2018-10-09T01:50:18.352Z,9.85
2018-10-09T01:52:46.408Z,12.68
2018-10-09T01:55:14.444Z,9.05
2018-10-09T01:57:42.508Z,7.35
2018-10-09T02:00:11.024Z,6.92
2018-10-09T02:02:39.420Z,11.18
2018-10-09T02:05:07.504Z,6.60
2018-10-09T02:07:35.561Z,8.63
2018-10-09T02:10:03.634Z,6.12
2018-10-09T02:12:31.689Z,7.00
2018-10-09T02:14:59.749Z,7.78
2018-10-09T02:17:27.805Z,4.85
2018-10-09T02:19:55.848Z,9.43
2018-10-09T02:22:23.972Z,6.87
2018-10-09T02:24:52.017Z,10.85
2018-10-09T02:27:20.088Z,8.58
2018-10-09T02:29:48.143Z,7.47
2018-10-09T02:32:16.209Z,10.70
2018-10-09T02:34:44.261Z,6.80
2018-10-09T02:37:12.303Z,9.28
2018-10-09T02:39:40.348Z,7.80
2018-10-09T02:42:08.398Z,10.40
2018-10-09T02:44:36.457Z,10.10
2018-10-09T02:47:04.492Z,9.55
2018-10-09T02:49:32.543Z,11.15
2018-10-09T02:52:00.573Z,8.88
2018-10-09T02:54:28.625Z,8.03
2018-10-09T02:56:56.680Z,8.08
2018-10-09T02:59:24.728Z,9.75
2018-10-09T03:01:52.772Z,11.03
2018-10-09T03:04:20.825Z,8.85
2018-10-09T03:06:48.877Z,10.28
2018-10-09T03:09:16.924Z,8.53
2018-10-09T03:11:44.973Z,7.67
2018-10-09T03:14:13.021Z,9.15
2018-10-09T03:16:41.064Z,10.88
2018-10-09T03:19:09.136Z,6.45
2018-10-09T03:21:37.184Z,10.85
2018-10-09T03:24:05.396Z,18.35
2018-10-09T03:26:33.447Z,8.55
2018-10-09T03:29:01.502Z,13.38
2018-10-09T03:31:29.545Z,11.08
2018-10-09T03:33:57.592Z,14.33
2018-10-09T03:36:25.625Z,9.40
2018-10-09T03:38:53.680Z,19.50
2018-10-09T03:41:21.736Z,14.55
2018-10-09T03:43:49.796Z,11.22
2018-10-09T03:46:17.852Z,14.03
2018-10-09T03:48:45.919Z,11.25
2018-10-09T03:51:13.956Z,8.73
2018-10-09T03:53:42.009Z,6.22
2018-10-09T03:56:10.053Z,7.80
2018-10-09T03:58:38.102Z,8.75
2018-10-09T04:01:06.380Z,11.68
2018-10-09T04:03:34.427Z,11.00
2018-10-09T04:06:02.531Z,9.23
2018-10-09T04:08:30.592Z,15.98
2018-10-09T04:10:58.696Z,11.85
2018-10-09T04:13:26.760Z,16.82
2018-10-09T04:15:54.818Z,13.25
2018-10-09T04:18:22.885Z,9.18
2018-10-09T04:20:50.933Z,13.28
2018-10-09T04:23:19.121Z,7.03
2018-10-09T04:25:47.160Z,10.03
2018-10-09T04:28:15.221Z,9.18
2018-10-09T04:30:43.279Z,13.00
2018-10-09T04:33:11.328Z,11.73
2018-10-09T04:35:39.469Z,9.93
2018-10-09T04:38:07.432Z,10.48
2018-10-09T04:40:35.484Z,8.60
2018-10-09T04:43:04.096Z,9.95
2018-10-09T04:45:32.197Z,7.72
2018-10-09T04:48:01.096Z,10.30
2018-10-09T04:50:29.594Z,12.25
2018-10-09T04:52:57.644Z,14.13
2018-10-09T04:55:25.688Z,9.15
2018-10-09T04:57:53.739Z,11.78
2018-10-09T05:00:21.802Z,10.82
2018-10-09T05:02:49.852Z,10.15
2018-10-09T05:05:18.112Z,10.93
2018-10-09T05:07:46.158Z,12.23
2018-10-09T05:10:14.217Z,14.45
2018-10-09T05:12:42.308Z,10.50
2018-10-09T05:15:10.360Z,7.80
2018-10-09T05:17:38.899Z,10.23
2018-10-09T05:20:08.253Z,11.93
2018-10-09T05:22:36.323Z,15.95
2018-10-09T05:25:04.364Z,11.22
2018-10-09T05:27:32.412Z,37.23
2018-10-09T05:30:00.468Z,34.75
2018-10-09T05:32:28.516Z,11.90
2018-10-09T05:34:56.576Z,13.20
2018-10-09T05:37:24.624Z,13.58
2018-10-09T05:39:52.816Z,14.98
2018-10-09T05:42:20.865Z,7.95
2018-10-09T05:44:48.917Z,9.45
2018-10-09T05:47:16.969Z,10.53
2018-10-09T05:49:45.029Z,10.23
2018-10-09T05:52:13.064Z,9.13
2018-10-09T05:54:41.128Z,10.05
2018-10-09T05:57:09.924Z,10.70
2018-10-09T05:59:38.312Z,16.40
2018-10-09T06:02:06.504Z,10.38
2018-10-09T06:04:34.693Z,14.90
2018-10-09T06:07:02.745Z,9.20
2018-10-09T06:09:30.801Z,12.68
2018-10-09T06:11:58.841Z,16.23
2018-10-09T06:14:26.913Z,19.82
2018-10-09T06:17:01.501Z,8.20
2018-10-09T06:19:29.552Z,12.60
2018-10-09T06:21:57.606Z,11.80
2018-10-09T06:24:25.652Z,9.58
2018-10-09T06:26:53.691Z,12.10
2018-10-09T06:29:21.749Z,12.80
2018-10-09T06:31:49.813Z,13.68
2018-10-09T06:34:17.863Z,18.23
2018-10-09T06:36:45.922Z,10.98
2018-10-09T06:39:13.968Z,13.95
2018-10-09T06:41:42.613Z,13.22
2018-10-09T06:44:11.000Z,13.80
2018-10-09T06:46:39.052Z,17.65
2018-10-09T06:49:07.112Z,15.63
2018-10-09T06:51:35.180Z,9.53
2018-10-09T06:54:03.353Z,16.20
2018-10-09T06:56:31.293Z,12.07
2018-10-09T06:58:59.344Z,28.55
2018-10-09T07:01:27.432Z,16.50
2018-10-09T07:03:55.507Z,16.23
2018-10-09T07:06:23.566Z,19.00
2018-10-09T07:08:51.620Z,15.28
2018-10-09T07:11:19.778Z,12.00
2018-10-09T07:13:47.731Z,13.80
2018-10-09T07:16:15.780Z,21.40
2018-10-09T07:18:43.837Z,14.43
2018-10-09T07:21:11.913Z,17.40
2018-10-09T07:23:39.977Z,15.95
2018-10-09T07:26:08.037Z,15.48
2018-10-09T07:28:36.088Z,17.17
2018-10-09T07:31:04.160Z,15.55
2018-10-09T07:33:32.437Z,16.37
2018-10-09T07:36:00.492Z,13.08
2018-10-09T07:38:28.544Z,18.02
2018-10-09T07:40:56.614Z,15.35
2018-10-09T07:43:24.677Z,18.23
2018-10-09T07:45:52.729Z,20.62
2018-10-09T07:48:20.895Z,16.87
2018-10-09T07:50:48.933Z,22.42
2018-10-09T07:53:16.981Z,17.73
2018-10-09T07:55:45.036Z,17.45
2018-10-09T07:58:13.111Z,22.35
2018-10-09T08:00:41.165Z,17.60
2018-10-09T08:03:09.224Z,18.95
2018-10-09T08:05:37.282Z,20.77
2018-10-09T08:08:05.344Z,20.32
2018-10-09T08:10:33.418Z,17.80
2018-10-09T08:13:01.469Z,19.77
2018-10-09T08:15:29.524Z,19.80
2018-10-09T08:17:57.601Z,16.00
2018-10-09T08:20:25.654Z,19.60
2018-10-09T08:22:54.069Z,14.20
2018-10-09T08:25:22.077Z,19.55
2018-10-09T08:27:50.156Z,33.45
2018-10-09T08:30:18.190Z,15.32
2018-10-09T08:32:46.252Z,20.50
2018-10-09T08:35:14.316Z,17.82
2018-10-09T08:37:42.383Z,24.15
2018-10-09T08:40:10.483Z,21.60
2018-10-09T08:42:38.511Z,18.48
2018-10-09T08:45:06.797Z,16.97
2018-10-09T08:47:34.961Z,19.32
2018-10-09T08:50:03.032Z,21.80
2018-10-09T08:52:31.085Z,17.32
2018-10-09T08:54:59.299Z,17.95
2018-10-09T08:57:27.479Z,14.98
2018-10-09T08:59:55.433Z,18.75
2018-10-09T09:02:23.505Z,19.30
2018-10-09T09:04:51.564Z,17.27
2018-10-09T09:07:19.625Z,18.70
2018-10-09T09:09:47.740Z,21.97
2018-10-09T09:12:15.748Z,19.65
2018-10-09T09:14:43.808Z,18.48
2018-10-09T09:17:11.956Z,28.75
2018-10-09T09:19:40.021Z,22.50
2018-10-09T09:22:08.085Z,18.90
2018-10-09T09:24:36.426Z,23.42
2018-10-09T09:27:04.625Z,22.67
2018-10-09T09:29:32.592Z,22.22
2018-10-09T09:32:00.633Z,18.40
2018-10-09T09:34:28.698Z,22.60
2018-10-09T09:36:56.749Z,18.50
2018-10-09T09:39:24.824Z,23.35
2018-10-09T09:41:53.007Z,20.88
2018-10-09T09:44:21.085Z,22.67
2018-10-09T09:46:49.149Z,22.93
2018-10-09T09:49:17.225Z,27.22
2018-10-09T09:51:45.309Z,17.12
2018-10-09T09:54:13.369Z,22.87
2018-10-09T09:56:41.444Z,23.92
2018-10-09T09:59:09.662Z,21.90
2018-10-09T10:01:41.076Z,22.60
2018-10-09T10:04:09.511Z,20.32
2018-10-09T10:06:37.568Z,18.67
2018-10-09T10:09:06.851Z,16.75
2018-10-09T10:11:34.944Z,17.27
2018-10-09T10:14:03.129Z,18.05
2018-10-09T10:16:31.185Z,20.05
2018-10-09T10:18:59.270Z,14.15
2018-10-09T10:21:27.427Z,16.70
2018-10-09T10:23:55.441Z,16.23
2018-10-09T10:26:23.589Z,14.73
2018-10-09T10:28:51.644Z,19.33
2018-10-09T10:31:19.699Z,18.50
2018-10-09T10:33:47.765Z,14.77
2018-10-09T10:36:15.840Z,17.07
2018-10-09T10:38:43.901Z,16.10
2018-10-09T10:41:11.952Z,12.97
2018-10-09T10:43:40.045Z,15.03
2018-10-09T10:46:08.554Z,17.57
2018-10-09T10:48:36.636Z,15.40
2018-10-09T10:51:04.693Z,12.77
2018-10-09T10:53:32.748Z,17.30
2018-10-09T10:56:00.844Z,16.13
2018-10-09T10:58:28.908Z,18.50
2018-10-09T11:00:56.992Z,21.30
2018-10-09T11:03:25.056Z,20.80
2018-10-09T11:05:53.124Z,19.27
2018-10-09T11:08:21.805Z,13.17
2018-10-09T11:10:49.833Z,12.90
2018-10-09T11:13:17.896Z,14.13
2018-10-09T11:15:45.982Z,14.90
2018-10-09T11:18:14.045Z,16.43
2018-10-09T11:20:42.141Z,15.40
2018-10-09T11:23:10.205Z,16.03
2018-10-09T11:25:38.267Z,16.30
2018-10-09T11:28:06.613Z,17.07
2018-10-09T11:30:34.716Z,16.67
2018-10-09T11:33:02.769Z,15.03
2018-10-09T11:35:30.876Z,16.53
2018-10-09T11:37:58.940Z,18.77
2018-10-09T11:40:27.000Z,15.33
2018-10-09T11:42:55.110Z,16.80
2018-10-09T11:45:23.150Z,13.47
2018-10-09T11:47:51.213Z,13.87
2018-10-09T11:50:19.281Z,16.77
2018-10-09T11:52:47.341Z,15.93
2018-10-09T11:55:15.408Z,15.30
2018-10-09T11:57:43.474Z,13.50
2018-10-09T12:00:11.540Z,13.73
2018-10-09T12:02:39.612Z,15.40
2018-10-09T12:05:07.672Z,15.67
2018-10-09T12:07:35.737Z,15.50
2018-10-09T12:10:03.809Z,15.40
2018-10-09T12:12:31.872Z,15.20
2018-10-09T12:14:59.937Z,17.90
2018-10-09T12:17:28.002Z,16.20
2018-10-09T12:19:56.061Z,14.10
2018-10-09T12:22:24.117Z,15.27
2018-10-09T12:24:52.181Z,17.40
2018-10-09T12:27:20.245Z,19.10
2018-10-09T12:29:48.296Z,15.47
2018-10-09T12:32:16.356Z,12.87
2018-10-09T12:34:44.389Z,15.50
2018-10-09T12:37:12.437Z,16.57
2018-10-09T12:39:40.472Z,19.70
2018-10-09T12:42:08.557Z,14.10
2018-10-09T12:44:36.580Z,13.80
2018-10-09T12:47:04.629Z,18.87
2018-10-09T12:49:32.668Z,12.00
2018-10-09T12:52:00.696Z,17.00
2018-10-09T12:54:28.720Z,13.50
2018-10-09T12:56:56.776Z,17.90
2018-10-09T12:59:24.828Z,24.27
2018-10-09T13:01:52.873Z,17.80
2018-10-09T13:04:20.897Z,18.10
2018-10-09T13:06:48.940Z,18.97
2018-10-09T13:09:17.020Z,22.67
2018-10-09T13:11:45.016Z,15.80
2018-10-09T13:14:13.048Z,17.00
2018-10-09T13:16:41.094Z,16.90
2018-10-09T13:19:09.162Z,20.00
2018-10-09T13:21:37.530Z,14.70
2018-10-09T13:24:05.245Z,16.13
2018-10-09T13:26:33.288Z,16.90
2018-10-09T13:29:01.318Z,11.80
2018-10-09T13:31:29.354Z,16.53
2018-10-09T13:33:57.402Z,12.73
2018-10-09T13:36:25.429Z,13.90
2018-10-09T13:38:53.469Z,20.83
2018-10-09T13:41:21.513Z,22.50
2018-10-09T13:43:49.579Z,13.60
2018-10-09T13:46:17.593Z,16.70
2018-10-09T13:48:45.988Z,18.00
2018-10-09T13:51:14.021Z,16.37
2018-10-09T13:53:42.066Z,13.80
2018-10-09T13:56:10.237Z,19.23
2018-10-09T13:58:38.317Z,18.10
2018-10-09T14:01:06.445Z,21.43
2018-10-09T14:03:34.487Z,19.23
2018-10-09T14:06:02.545Z,17.23
2018-10-09T14:08:30.550Z,17.50
2018-10-09T14:10:58.581Z,18.33
2018-10-09T14:13:33.289Z,15.93
2018-10-09T14:16:01.333Z,28.10
2018-10-09T14:18:29.364Z,16.93
2018-10-09T14:20:57.400Z,16.00
2018-10-09T14:23:25.510Z,15.30
2018-10-09T14:25:53.545Z,17.87
2018-10-09T14:28:21.593Z,18.00
2018-10-09T14:30:49.640Z,26.25
2018-10-09T14:33:17.705Z,19.95
2018-10-09T14:35:45.744Z,14.03
2018-10-09T14:38:13.800Z,15.50
2018-10-09T14:40:41.860Z,14.73
2018-10-09T14:43:10.120Z,16.93
2018-10-09T14:45:38.280Z,18.73
2018-10-09T14:48:06.364Z,19.35
2018-10-09T14:50:34.397Z,16.48
2018-10-09T14:53:02.442Z,22.62
2018-10-09T14:55:30.477Z,16.97
2018-10-09T14:57:58.514Z,16.82
2018-10-09T15:00:26.549Z,15.60
2018-10-09T15:02:54.577Z,14.80
2018-10-09T15:05:22.625Z,17.52
2018-10-09T15:07:50.660Z,16.87
2018-10-09T15:10:18.700Z,15.23
2018-10-09T15:12:46.768Z,22.77
2018-10-09T15:15:14.825Z,18.85
2018-10-09T15:17:42.881Z,20.75
2018-10-09T15:20:11.993Z,17.45
2018-10-09T15:22:40.166Z,15.10
2018-10-09T15:25:08.361Z,17.40
2018-10-09T15:27:36.393Z,14.70
2018-10-09T15:30:04.433Z,19.98
2018-10-09T15:32:32.461Z,14.60
2018-10-09T15:35:00.564Z,20.60
2018-10-09T15:37:28.742Z,16.73
2018-10-09T15:39:56.757Z,19.67
2018-10-09T15:42:24.845Z,15.05
2018-10-09T15:44:52.893Z,19.55
2018-10-09T15:47:20.997Z,14.63
2018-10-09T15:49:48.981Z,14.35
2018-10-09T15:52:16.997Z,17.32
2018-10-09T15:54:45.047Z,16.67
2018-10-09T15:57:13.073Z,25.57
2018-10-09T15:59:41.125Z,15.75
2018-10-09T16:02:09.165Z,12.35
2018-10-09T16:07:14.323Z,21.90
2018-10-09T16:09:42.352Z,14.50
2018-10-09T16:12:10.462Z,25.70
2018-10-09T16:14:38.476Z,16.93
2018-10-09T16:17:06.713Z,14.23
2018-10-09T16:19:34.746Z,20.85
2018-10-09T16:22:02.781Z,19.30
2018-10-09T16:24:30.832Z,19.20
2018-10-09T16:26:58.885Z,16.30
2018-10-09T16:29:27.001Z,12.65
2018-10-09T16:31:55.049Z,14.28
2018-10-09T16:34:23.117Z,15.15
2018-10-09T16:36:51.213Z,14.15
2018-10-09T16:39:19.257Z,14.58
2018-10-09T16:41:47.306Z,15.05
2018-10-09T16:44:15.369Z,14.25
2018-10-09T16:46:43.456Z,17.00
2018-10-09T16:49:11.506Z,20.10
2018-10-09T16:51:39.551Z,18.82
2018-10-09T16:54:07.857Z,15.40
2018-10-09T16:56:35.881Z,14.23
2018-10-09T16:59:04.290Z,28.05
2018-10-09T17:01:32.325Z,21.82
2018-10-09T17:04:00.360Z,15.93
2018-10-09T17:06:28.386Z,17.40
2018-10-09T17:08:56.428Z,14.05
2018-10-09T17:11:24.473Z,20.80
2018-10-09T17:13:52.537Z,19.12
2018-10-09T17:16:20.574Z,19.00
2018-10-09T17:18:48.602Z,16.70
2018-10-09T17:21:16.624Z,19.25
2018-10-09T17:23:45.432Z,21.42
2018-10-09T17:26:13.460Z,19.25
2018-10-09T17:28:41.497Z,16.67
2018-10-09T17:31:09.551Z,19.12
2018-10-09T17:33:37.801Z,22.80
2018-10-09T17:36:05.761Z,15.95
2018-10-09T17:38:33.786Z,15.78
2018-10-09T17:41:01.831Z,19.05
2018-10-09T17:43:29.936Z,16.57
2018-10-09T17:45:57.976Z,16.67
2018-10-09T17:48:26.072Z,15.68
2018-10-09T17:50:54.062Z,15.93
2018-10-09T17:53:22.088Z,18.50
2018-10-09T17:55:50.129Z,17.35
2018-10-09T17:58:18.166Z,21.00
2018-10-09T18:00:46.197Z,20.25
2018-10-09T18:03:14.249Z,19.57
2018-10-09T18:05:42.293Z,16.75
2018-10-09T18:08:10.304Z,16.45
2018-10-09T18:10:38.335Z,16.02
2018-10-09T18:13:06.509Z,20.45
2018-10-09T18:15:34.532Z,18.95
2018-10-09T18:18:02.569Z,19.95
2018-10-09T18:20:30.791Z,15.80
2018-10-09T18:22:58.692Z,19.90
2018-10-09T18:25:26.745Z,15.60
2018-10-09T18:27:54.769Z,18.95
2018-10-09T18:30:22.813Z,18.52
2018-10-09T18:32:51.108Z,16.75
2018-10-09T18:35:18.892Z,16.45
2018-10-09T18:37:46.924Z,21.05
2018-10-09T18:40:14.966Z,19.05
2018-10-09T18:42:43.030Z,18.67
2018-10-09T18:45:11.073Z,15.63
2018-10-09T18:47:41.345Z,16.25
2018-10-09T18:50:09.553Z,22.32
2018-10-09T18:52:37.925Z,19.82
2018-10-09T18:55:06.548Z,15.83
2018-10-09T18:57:34.704Z,21.12
2018-10-09T19:00:02.736Z,17.55
2018-10-09T19:02:30.765Z,21.23
2018-10-09T19:04:58.793Z,18.27
2018-10-09T19:07:26.816Z,19.98
2018-10-09T19:09:54.841Z,18.37
2018-10-09T19:12:22.872Z,20.80
2018-10-09T19:14:50.909Z,18.48
2018-10-09T19:17:18.942Z,20.02
2018-10-09T19:19:46.965Z,16.75
2018-10-09T19:22:15.001Z,15.18
2018-10-09T19:24:43.041Z,16.75
2018-10-09T19:27:11.064Z,15.28
2018-10-09T19:29:39.080Z,16.42
2018-10-09T19:32:07.130Z,18.70
2018-10-09T19:34:35.165Z,18.80
2018-10-09T19:37:03.452Z,20.75
2018-10-09T19:39:31.504Z,20.37
2018-10-09T19:41:59.505Z,18.75
2018-10-09T19:44:27.785Z,20.82
2018-10-09T19:46:55.817Z,21.00
2018-10-09T19:49:23.865Z,14.38
2018-10-09T19:51:51.897Z,20.12
2018-10-09T19:54:20.404Z,16.90
2018-10-09T19:56:48.442Z,28.55
2018-10-09T19:59:16.550Z,17.98
2018-10-09T20:01:44.572Z,16.97
2018-10-09T20:04:12.637Z,17.67
2018-10-09T20:06:40.672Z,18.70
2018-10-09T20:09:10.549Z,17.65
2018-10-09T20:11:38.580Z,24.65
2018-10-09T20:14:07.341Z,13.65
2018-10-09T20:16:35.504Z,21.45
2018-10-09T20:19:03.537Z,17.00
2018-10-09T20:21:31.560Z,22.05
2018-10-09T20:23:59.590Z,21.37
2018-10-09T20:26:27.617Z,15.58
2018-10-09T20:28:55.640Z,15.98
2018-10-09T20:31:23.677Z,21.50
2018-10-09T20:33:51.828Z,19.05
2018-10-09T20:36:21.076Z,16.93
2018-10-09T20:38:49.083Z,15.30
2018-10-09T20:41:17.125Z,13.05
2018-10-09T20:43:45.157Z,18.48
2018-10-09T20:46:13.252Z,21.60
2018-10-09T20:48:41.328Z,17.40
2018-10-09T20:51:09.349Z,14.83
2018-10-09T20:53:37.520Z,16.15
2018-10-09T20:56:05.540Z,20.75
2018-10-09T20:58:33.568Z,22.10
2018-10-09T21:01:01.677Z,16.73
2018-10-09T21:03:29.696Z,14.78
2018-10-09T21:05:57.913Z,14.85
2018-10-09T21:08:26.154Z,17.70
2018-10-09T21:10:54.176Z,16.73
2018-10-09T21:13:22.200Z,15.00
2018-10-09T21:15:50.226Z,12.40
2018-10-09T21:18:18.282Z,17.25
2018-10-09T21:20:46.464Z,16.70
2018-10-09T21:23:14.516Z,23.77
2018-10-09T21:25:42.545Z,19.25
2018-10-09T21:28:10.602Z,18.27
2018-10-09T21:30:38.642Z,21.75
2018-10-09T21:33:06.766Z,16.23
2018-10-09T21:35:34.794Z,17.60
2018-10-09T21:38:02.816Z,18.87
2018-10-09T21:40:30.843Z,13.58
2018-10-09T21:42:58.873Z,14.15
2018-10-09T21:45:26.917Z,16.32
2018-10-09T21:47:57.885Z,16.48
2018-10-09T21:50:26.172Z,15.93
2018-10-09T21:52:54.233Z,13.03
2018-10-09T21:55:22.467Z,18.15
2018-10-09T21:57:50.558Z,13.15
2018-10-09T22:00:18.622Z,16.82
2018-10-09T22:02:46.681Z,12.25
2018-10-09T22:05:14.755Z,15.65
2018-10-09T22:07:42.776Z,13.45
2018-10-09T22:10:10.853Z,17.35
2018-10-09T22:12:38.869Z,18.48
2018-10-09T22:15:07.089Z,13.95
2018-10-09T22:17:35.131Z,16.75
2018-10-09T22:20:03.149Z,17.00
2018-10-09T22:22:31.173Z,15.60
2018-10-09T22:24:59.220Z,14.33
2018-10-09T22:27:27.249Z,14.50
2018-10-09T22:29:55.424Z,22.75
2018-10-09T22:32:23.449Z,19.70
2018-10-09T22:34:51.488Z,14.30
2018-10-09T22:37:19.989Z,20.68
2018-10-09T22:39:48.017Z,14.98
2018-10-09T22:42:16.353Z,15.20
2018-10-09T22:44:44.548Z,16.77
2018-10-09T22:47:12.572Z,19.42
2018-10-09T22:49:40.604Z,13.83
2018-10-09T22:52:08.666Z,14.83
2018-10-09T22:54:36.692Z,24.20
2018-10-09T22:57:04.728Z,14.53
2018-10-09T22:59:32.757Z,11.78
2018-10-09T23:02:00.780Z,11.75
2018-10-09T23:04:28.806Z,10.75
2018-10-09T23:06:56.848Z,16.48
2018-10-09T23:09:24.868Z,14.63
2018-10-09T23:11:53.010Z,13.62
2018-10-09T23:14:21.033Z,14.75
2018-10-09T23:16:49.064Z,19.57
2018-10-09T23:19:17.084Z,21.60
2018-10-09T23:21:45.129Z,20.20
2018-10-09T23:24:13.147Z,19.05
2018-10-09T23:26:41.179Z,17.10
2018-10-09T23:29:09.212Z,24.92
2018-10-09T23:31:37.229Z,18.48
2018-10-09T23:34:05.244Z,13.13
2018-10-09T23:36:33.331Z,15.85
2018-10-09T23:39:01.654Z,13.32
2018-10-09T23:41:29.787Z,16.87
2018-10-09T23:43:58.059Z,23.12
2018-10-09T23:46:26.097Z,23.38
2018-10-09T23:48:54.233Z,22.67
2018-10-09T23:51:22.335Z,23.80
2018-10-09T23:53:50.360Z,27.55
2018-10-09T23:56:18.396Z,27.17
2018-10-09T23:58:46.433Z,29.27
